Latest Coastal Weather Observations for Carnarvon

IDW60701

Issued at 1:32 am WST Thursday 3 September 2015 (issued every 10 minutes, with the page automatically refreshed every 10 minutes)

About coastal observations | Map of coastal stations | Coastal observations for WA | Marine services | Other Formats
Station Details ID: 006011 Name: CARNARVON AIRPORT Lat: -24.89 Lon: 113.67 Height: 4.0 m
Data from the previous 72 hours. | See also: Recent months at Carnarvon
Date/Time
WST
Temp

°C
Wind Pressure Rain
since 9am
mm
Weather Cloud Vis
km
Sea
Height
m
Swell
Dir
 
Speed
knots
Gust
knots
hPa Trend Height
m
Period
s
Dir
03/01:30am 16.2 S 11 15 1018.7 - 0.0 - - 10 - - - -
03/01:00am 15.6 S 10 13 1018.9 - 0.0 - - 10 - - - -
03/12:30am 15.6 S 11 13 1019.1 - 0.0 - - 10 - - - -
03/12:00am 15.7 S 11 14 1019.4 - 0.0 - - 10 - - - -
 
Date/Time
WST
Temp

°C
Wind Pressure Rain
since 9am
mm
Weather Cloud Vis
km
Sea
Height
m
Swell
Dir
 
Speed
knots
Gust
knots
hPa Trend Height
m
Period
s
Dir
02/11:30pm 15.7 S 11 14 1019.5 - 0.0 - - 10 - - - -
02/11:00pm 15.5 S 11 13 1019.6 - 0.0 - - 10 - - - -
02/10:30pm 15.8 S 11 14 1019.8 - 0.0 - - 10 - - - -
02/10:00pm 16.4 S 13 17 1019.8 - 0.0 - - 10 - - - -
02/09:30pm 16.5 S 10 12 1019.8 - 0.0 - - 10 - - - -
02/09:00pm 16.8 SSW 10 13 1019.7 - 0.0 - - 10 - - - -
02/08:30pm 16.8 SSW 9 12 1019.5 - 0.0 - - 10 - - - -
02/08:00pm 17.0 SSW 11 13 1019.3 - 0.0 - - 10 - - - -
02/07:30pm 17.1 SSW 10 13 1019.1 - 0.0 - - 10 - - - -
02/07:00pm 17.2 SSW 11 14 1018.9 - 0.0 - - 10 - - - -
02/06:30pm 17.0 SSW 10 14 1018.5 - 0.0 - - 10 - - - -
02/06:00pm 17.5 S 10 13 1018.0 - 0.0 - - 10 - - - -
02/05:30pm 18.2 S 11 13 1017.9 - 0.0 - - 10 - - - -
02/05:00pm 18.7 SSW 11 16 1018.0 - 0.0 - - 10 - - - -
02/04:30pm 18.8 SSW 13 16 1017.9 - 0.0 - - 10 - - - -
02/04:00pm 19.2 SSW 13 16 1017.8 - 0.0 - - 10 - - - -
02/03:30pm 19.0 SSW 15 18 1018.0 - 0.0 - - 10 - - - -
02/03:00pm 19.8 SW 17 21 1018.4 - 0.0 Fine Clear 30 - - - -
02/02:30pm 20.1 SW 17 22 1018.3 - 0.0 - - 10 - - - -
02/02:00pm 20.0 SSW 15 19 1018.3 - 0.0 - - 10 - - - -
02/01:30pm 20.3 SSW 15 18 1018.4 - 0.0 - - 10 - - - -
02/01:00pm 20.7 SSW 15 19 1018.8 - 0.0 - - 10 - - - -
02/12:30pm 20.4 SSW 14 17 1018.9 - 0.0 - - 10 - - - -
02/12:00pm 20.7 SSW 13 18 1019.5 - 0.0 - - 10 - - - -
02/11:30am 21.2 E 7 13 1019.7 - 0.0 - - 10 - - - -
02/11:00am 19.8 SSE 8 11 1020.3 - 0.0 - - 10 - - - -
02/10:30am 19.8 SE 8 13 1020.6 - 0.0 - - 10 - - - -
02/10:00am 20.2 E 11 14 1020.6 - 0.0 - - 10 - - - -
02/09:30am 18.3 E 11 15 1020.7 - 0.0 - - 10 - - - -
02/09:00am 16.5 E 14 18 1020.8 - 0.0 Fine Clear 30 - - - -
02/08:30am 15.0 E 14 17 1020.8 - 0.0 - - 10 - - - -
02/08:00am 13.1 ESE 11 14 1021.0 - 0.0 - - 10 - - - -
02/07:30am 11.1 ESE 8 12 1020.9 - 0.0 - - 10 - - - -
02/07:00am 9.0 SE 6 8 1020.7 - 0.0 - - 10 - - - -
02/06:30am 8.5 SE 7 8 1020.3 - 0.0 - - 10 - - - -
02/06:00am 9.0 SE 7 8 1020.0 - 0.0 - - 10 - - - -
02/05:30am 9.8 SE 8 11 1019.8 - 0.0 - - 10 - - - -
02/05:00am 10.5 SE 9 11 1019.6 - 0.0 - - 10 - - - -
02/04:30am 10.9 SE 9 11 1019.6 - 0.0 - - 10 - - - -
02/04:00am 10.7 SE 9 11 1019.6 - 0.0 - - 10 - - - -
02/03:30am 11.1 SE 9 10 1019.8 - 0.0 - - 10 - - - -
02/03:00am 11.4 SE 9 11 1019.7 - 0.0 - - 10 - - - -
02/02:30am 11.8 SE 8 10 1020.1 - 0.0 - - 10 - - - -
02/02:00am 13.1 SSE 9 12 1020.2 - 0.0 - - 10 - - - -
02/01:30am 13.7 SSE 10 13 1020.4 - 0.0 - - 10 - - - -
02/01:00am 14.6 SSE 11 14 1020.4 - 0.0 - - 10 - - - -
02/12:30am 15.5 SSE 12 17 1020.4 - 0.0 - - 10 - - - -
02/12:00am 15.7 SSE 11 16 1020.5 - 0.0 - - 10 - - - -
 
Date/Time
WST
Temp

°C
Wind Pressure Rain
since 9am
mm
Weather Cloud Vis
km
Sea
Height
m
Swell
Dir
 
Speed
knots
Gust
knots
hPa Trend Height
m
Period
s
Dir
01/11:30pm 15.7 SSE 10 13 1020.5 - 0.0 - - 10 - - - -
01/11:00pm 16.3 S 12 16 1020.7 - 0.0 - - 10 - - - -
01/10:30pm 16.5 S 12 16 1020.6 - 0.0 - - 10 - - - -
01/10:00pm 16.6 S 13 17 1020.6 - 0.0 - - 10 - - - -
01/09:30pm 16.7 S 13 17 1020.4 - 0.0 - - 10 - - - -
01/09:00pm 16.9 S 14 18 1020.4 - 0.0 - - 10 - - - -
01/08:30pm 17.1 S 12 16 1020.1 - 0.0 - - 10 - - - -
01/08:00pm 17.4 S 13 18 1020.0 - 0.0 - - 10 - - - -
01/07:30pm 17.6 S 13 19 1019.6 - 0.0 - - 10 - - - -
01/07:00pm 17.7 S 12 16 1019.4 - 0.0 - - 10 - - - -
01/06:30pm 18.3 S 14 20 1019.1 - 0.0 - - 10 - - - -
01/06:00pm 19.0 S 16 22 1018.9 - 0.0 - - 10 - - - -
01/05:30pm 19.7 S 16 21 1018.7 - 0.0 - - 10 - - - -
01/05:00pm 20.5 S 17 22 1018.6 - 0.0 - Partly cloudy 10 - - - -
01/04:30pm 20.7 S 18 24 1018.7 - 0.0 - Partly cloudy 10 - - - -
01/04:00pm 21.0 S 18 26 1018.9 - 0.0 - Partly cloudy 10 - - - -
01/03:30pm 21.2 S 18 25 1019.0 - 0.0 - Partly cloudy 10 - - - -
01/03:00pm 21.8 S 18 24 1019.1 - 0.0 Fine Clear 30 - - - -
01/02:30pm 21.5 S 19 24 1019.3 - 0.0 - Partly cloudy 10 - - - -
01/02:00pm 21.5 S 19 24 1019.5 - 0.0 - Partly cloudy 10 - - - -
01/01:30pm 21.9 S 20 26 1019.7 - 0.0 - Partly cloudy 10 - - - -
01/01:00pm 20.9 S 21 28 1019.9 - 0.0 - Partly cloudy 10 - - - -
01/12:30pm 21.5 S 19 24 1020.3 - 0.0 - Partly cloudy 10 - - - -
01/12:00pm 20.9 S 17 23 1020.7 - 0.0 - Cloudy 10 - - - -
01/11:30am 21.6 SE 14 23 1021.0 - 0.0 - Partly cloudy 10 - - - -
01/11:00am 21.2 SE 14 21 1021.3 - 0.0 - Partly cloudy 10 - - - -
01/10:30am 20.2 SE 14 19 1021.5 - 0.0 - Partly cloudy 10 - - - -
01/10:00am 19.9 SE 15 22 1021.6 - 0.0 - Partly cloudy 10 - - - -
01/09:30am 19.5 SE 16 21 1021.7 - 0.0 - Partly cloudy 10 - - - -
01/09:00am 18.2 SE 15 20 1021.5 - 0.0 Fine Mostly clear 25 - - - -
01/08:30am 16.8 SE 12 15 1021.4 - 0.0 - Partly cloudy 10 - - - -
01/08:00am 14.7 SE 11 16 1021.2 - 0.0 - Partly cloudy 10 - - - -
01/07:30am 13.4 SE 8 12 1021.0 - 0.0 - Partly cloudy 10 - - - -
01/07:00am 10.6 ESE 6 8 1020.8 - 0.0 - Partly cloudy 10 - - - -
01/06:30am 10.5 ESE 7 9 1020.5 - 0.0 - Partly cloudy 10 - - - -
01/06:00am 9.7 ESE 7 8 1020.2 - 0.0 - Cloudy 10 - - - -
01/05:30am 9.8 ESE 6 7 1020.0 - 0.0 - Partly cloudy 10 - - - -
01/05:00am 11.0 SE 6 7 1019.9 - 0.0 - Partly cloudy 10 - - - -
01/04:30am 11.4 SSE 7 8 1019.7 - 0.0 - Partly cloudy 10 - - - -
01/04:00am 11.1 SE 7 7 1019.8 - 0.0 - Partly cloudy 10 - - - -
01/03:30am 13.0 SSE 7 9 1020.0 - 0.0 - Partly cloudy 10 - - - -
01/03:00am 14.6 SSE 8 11 1020.2 - 0.0 - Cloudy 10 - - - -
01/02:30am 15.0 SE 6 7 1020.3 - 0.0 - Partly cloudy 10 - - - -
01/02:00am 16.5 S 10 14 1020.3 - 0.0 - Partly cloudy 10 - - - -
01/01:30am 16.2 S 10 13 1020.6 - 0.0 - Partly cloudy 10 - - - -
01/01:00am 16.2 S 9 12 1020.7 - 0.0 - Partly cloudy 10 - - - -
01/12:30am 16.5 S 10 14 1020.8 - 0.0 - Partly cloudy 10 - - - -
01/12:00am 16.9 S 12 16 1020.8 - 0.0 - Cloudy 10 - - - -
 
Date/Time
WST
Temp

°C
Wind Pressure Rain
since 9am
mm
Weather Cloud Vis
km
Sea
Height
m
Swell
Dir
 
Speed
knots
Gust
knots
hPa Trend Height
m
Period
s
Dir
31/11:30pm 17.2 S 15 20 1020.8 - 0.0 - Partly cloudy 10 - - - -
31/11:00pm 17.2 S 14 19 1020.9 - 0.0 - - 10 - - - -
31/10:30pm 17.4 S 14 18 1021.0 - 0.0 - Partly cloudy 10 - - - -
31/10:00pm 18.2 S 15 19 1021.0 - 0.0 - Partly cloudy 10 - - - -
31/09:30pm 18.1 S 12 17 1020.9 - 0.0 - Partly cloudy 10 - - - -
31/09:00pm 18.2 S 15 19 1020.8 - 0.0 - Partly cloudy 10 - - - -
31/08:30pm 17.5 S 9 12 1020.7 - 0.0 - Partly cloudy 10 - - - -
31/08:00pm 17.4 S 8 10 1020.3 - 0.0 - Partly cloudy 10 - - - -
31/07:30pm 17.3 S 7 8 1020.2 - 0.0 - Partly cloudy 10 - - - -
31/07:00pm 17.6 S 7 9 1020.1 - 0.0 - - 10 - - - -
31/06:30pm 18.3 S 10 12 1020.0 - 0.0 - - 10 - - - -
31/06:00pm 18.6 SSW 10 14 1019.8 - 0.0 - - 10 - - - -
31/05:30pm 19.4 SSW 12 14 1019.6 - 0.0 - - 10 - - - -
31/05:00pm 20.1 S 12 17 1019.6 - 0.0 - - 10 - - - -
31/04:30pm 20.0 S 14 18 1019.5 - 0.0 - - 10 - - - -
31/04:00pm 20.3 S 15 19 1019.5 - 0.0 - - 10 - - - -
31/03:30pm 20.8 S 15 18 1019.8 - 0.0 - Partly cloudy 10 - - - -
31/03:00pm 20.6 SSW 15 21 1019.9 - 0.0 Fine Partly cloudy 25 - - - -
31/02:30pm 21.4 S 16 20 1020.1 - 0.0 - Partly cloudy 10 - - - -
31/02:00pm 22.1 S 14 18 1020.1 - 0.0 - Partly cloudy 10 - - - -
31/01:30pm 21.3 S 15 18 1020.2 - 0.0 - - 10 - - - -
31/01:00pm 22.2 S 14 19 1020.5 - 0.0 - - 10 - - - -
31/12:30pm 22.2 S 14 20 1020.9 - 0.0 - Partly cloudy 10 - - - -
31/12:00pm 21.4 S 15 20 1021.1 - 0.0 - Cloudy 10 - - - -
31/11:30am 21.2 S 15 20 1021.4 - 0.0 - Cloudy 10 - - - -
31/11:00am 20.6 S 15 18 1021.6 - 0.0 - Partly cloudy 10 - - - -
31/10:30am 20.8 S 15 19 1021.8 - 0.0 - Partly cloudy 10 - - - -
31/10:00am 20.7 S 15 21 1021.9 - 0.0 - - 10 - - - -
31/09:30am 19.7 SSE 13 18 1021.6 - 0.0 - - 10 - - - -
31/09:00am 18.9 SE 13 16 1021.6 - 0.0 Fine Mostly clear 25 - - - -
31/08:30am 17.5 SE 12 14 1021.3 - 0.0 - - 10 - - - -
31/08:00am 15.9 SE 10 13 1021.2 - 0.0 - - 10 - - - -
31/07:30am 14.4 SE 8 11 1020.9 - 0.0 - - 10 - - - -
31/07:00am 13.2 SE 8 10 1020.5 - 0.0 - - 10 - - - -
31/06:30am 13.1 SE 8 10 1020.3 - 0.0 - - 10 - - - -
31/06:00am 13.5 SE 9 12 1020.1 - 0.0 - - 10 - - - -
31/05:30am 13.8 SE 10 12 1019.9 - 0.0 - - 10 - - - -
31/05:00am 13.7 SE 8 10 1019.8 - 0.0 - - 10 - - - -
31/04:30am 14.3 SE 8 10 1019.8 - 0.0 - - 10 - - - -
31/04:00am 14.6 SE 8 9 1019.8 - 0.0 - - 10 - - - -
31/03:30am 15.5 SSE 9 13 1019.8 - 0.0 - - 10 - - - -
31/03:00am 16.2 SSE 9 11 1019.8 - 0.0 - - 10 - - - -
31/02:30am 16.8 SSE 9 11 1020.0 - 0.0 - - 10 - - - -
31/02:00am 17.6 S 12 15 1020.2 - 0.0 - - 10 - - - -

Other Formats:

Comma delimited format used in spreadsheet applications
http://www.bom.gov.au/fwo/IDW60701/IDW60701.94300.axf

JavaScript Object Notation format (JSON) in row-major order
http://www.bom.gov.au/fwo/IDW60701/IDW60701.94300.json